sensor_id;sensor_type;location;lat;lon;timestamp;pressure;altitude;pressure_sealevel;temperature;humidity
23433;BME280;41331;45.412;10.992;2023-02-21T00:02:38;101667.84;;;7.99;100.00
23433;BME280;41331;45.412;10.992;2023-02-21T00:05:24;101661.59;;;8.03;100.00
23433;BME280;41331;45.412;10.992;2023-02-21T00:08:13;101657.78;;;8.04;100.00
23433;BME280;41331;45.412;10.992;2023-02-21T00:10:59;101663.69;;;8.12;100.00
23433;BME280;41331;45.412;10.992;2023-02-21T00:13:45;101658.72;;;8.24;100.00
23433;BME280;41331;45.412;10.992;2023-02-21T00:16:31;101654.06;;;8.29;100.00
23433;BME280;41331;45.412;10.992;2023-02-21T00:19:16;101648.06;;;7.98;100.00
23433;BME280;41331;45.412;10.992;2023-02-21T00:22:02;101654.28;;;7.99;100.00
23433;BME280;41331;45.412;10.992;2023-02-21T00:24:48;101644.75;;;8.01;100.00
23433;BME280;41331;45.412;10.992;2023-02-21T00:27:34;101646.03;;;8.14;100.00
23433;BME280;41331;45.412;10.992;2023-02-21T00:30:20;101651.16;;;8.21;100.00
23433;BME280;41331;45.412;10.992;2023-02-21T00:33:06;101645.00;;;8.10;100.00
23433;BME280;41331;45.412;10.992;2023-02-21T00:35:52;101641.84;;;7.93;100.00
23433;BME280;41331;45.412;10.992;2023-02-21T00:38:39;101630.88;;;7.69;100.00
23433;BME280;41331;45.412;10.992;2023-02-21T00:41:26;101640.38;;;7.66;100.00
23433;BME280;41331;45.412;10.992;2023-02-21T00:44:15;101641.75;;;7.64;100.00
23433;BME280;41331;45.412;10.992;2023-02-21T00:47:00;101634.22;;;7.50;100.00
23433;BME280;41331;45.412;10.992;2023-02-21T00:49:47;101632.59;;;7.49;100.00
23433;BME280;41331;45.412;10.992;2023-02-21T00:52:32;101631.25;;;7.47;100.00
23433;BME280;41331;45.412;10.992;2023-02-21T00:55:18;101625.84;;;7.47;100.00
23433;BME280;41331;45.412;10.992;2023-02-21T00:58:04;101628.28;;;7.48;100.00
23433;BME280;41331;45.412;10.992;2023-02-21T01:00:50;101631.03;;;7.43;100.00
23433;BME280;41331;45.412;10.992;2023-02-21T01:03:36;101623.69;;;7.44;100.00
23433;BME280;41331;45.412;10.992;2023-02-21T01:06:22;101625.88;;;7.37;100.00
23433;BME280;41331;45.412;10.992;2023-02-21T01:09:07;101628.84;;;7.40;100.00
23433;BME280;41331;45.412;10.992;2023-02-21T01:11:53;101629.94;;;7.39;100.00
23433;BME280;41331;45.412;10.992;2023-02-21T01:14:42;101623.19;;;7.32;100.00
23433;BME280;41331;45.412;10.992;2023-02-21T01:17:28;101627.03;;;7.20;100.00
23433;BME280;41331;45.412;10.992;2023-02-21T01:20:14;101623.81;;;7.18;100.00
23433;BME280;41331;45.412;10.992;2023-02-21T01:23:00;101619.75;;;7.11;100.00
23433;BME280;41331;45.412;10.992;2023-02-21T01:25:46;101624.38;;;7.10;100.00
23433;BME280;41331;45.412;10.992;2023-02-21T01:28:32;101622.19;;;7.12;100.00
23433;BME280;41331;45.412;10.992;2023-02-21T01:31:19;101621.16;;;7.03;100.00
23433;BME280;41331;45.412;10.992;2023-02-21T01:34:05;101619.53;;;6.92;100.00
23433;BME280;41331;45.412;10.992;2023-02-21T01:36:51;101624.41;;;6.90;100.00
23433;BME280;41331;45.412;10.992;2023-02-21T01:39:37;101617.66;;;6.87;100.00
23433;BME280;41331;45.412;10.992;2023-02-21T01:42:24;101612.50;;;6.91;100.00
23433;BME280;41331;45.412;10.992;2023-02-21T01:48:12;101605.78;;;6.78;100.00
23433;BME280;41331;45.412;10.992;2023-02-21T01:51:01;101608.22;;;6.74;100.00
23433;BME280;41331;45.412;10.992;2023-02-21T01:53:49;101611.22;;;6.63;100.00
23433;BME280;41331;45.412;10.992;2023-02-21T01:56:36;101600.69;;;6.51;100.00
23433;BME280;41331;45.412;10.992;2023-02-21T01:59:26;101605.00;;;6.57;100.00
23433;BME280;41331;45.412;10.992;2023-02-21T02:05:20;101588.50;;;6.64;100.00
23433;BME280;41331;45.412;10.992;2023-02-21T02:08:07;101590.09;;;6.70;100.00
23433;BME280;41331;45.412;10.992;2023-02-21T02:11:09;101589.56;;;6.68;100.00
23433;BME280;41331;45.412;10.992;2023-02-21T02:25:55;101587.94;;;6.62;100.00
23433;BME280;41331;45.412;10.992;2023-02-21T02:29:38;101580.13;;;6.60;100.00
23433;BME280;41331;45.412;10.992;2023-02-21T02:35:33;101578.78;;;6.32;100.00
23433;BME280;41331;45.412;10.992;2023-02-21T02:38:26;101577.19;;;6.11;100.00
23433;BME280;41331;45.412;10.992;2023-02-21T02:46:23;101570.44;;;6.23;100.00
23433;BME280;41331;45.412;10.992;2023-02-21T02:49:06;101572.84;;;6.25;100.00
23433;BME280;41331;45.412;10.992;2023-02-21T02:51:35;101562.03;;;6.25;100.00
23433;BME280;41331;45.412;10.992;2023-02-21T02:54:05;101556.63;;;6.25;100.00
23433;BME280;41331;45.412;10.992;2023-02-21T02:56:33;101561.75;;;6.21;100.00
23433;BME280;41331;45.412;10.992;2023-02-21T02:59:10;101562.31;;;6.23;100.00
23433;BME280;41331;45.412;10.992;2023-02-21T03:07:10;101555.03;;;6.19;100.00
23433;BME280;41331;45.412;10.992;2023-02-21T03:18:21;101549.88;;;6.12;100.00
23433;BME280;41331;45.412;10.992;2023-02-21T03:20:57;101548.00;;;6.03;100.00
23433;BME280;41331;45.412;10.992;2023-02-21T03:23:27;101539.63;;;6.09;100.00
23433;BME280;41331;45.412;10.992;2023-02-21T03:25:58;101546.09;;;6.08;100.00
23433;BME280;41331;45.412;10.992;2023-02-21T03:28:28;101535.81;;;6.15;100.00
23433;BME280;41331;45.412;10.992;2023-02-21T03:30:59;101540.16;;;6.11;100.00
23433;BME280;41331;45.412;10.992;2023-02-21T03:33:31;101541.22;;;6.10;100.00
23433;BME280;41331;45.412;10.992;2023-02-21T03:36:02;101539.34;;;6.11;100.00
23433;BME280;41331;45.412;10.992;2023-02-21T03:38:30;101534.22;;;6.09;100.00
23433;BME280;41331;45.412;10.992;2023-02-21T03:40:58;101529.91;;;6.08;100.00
23433;BME280;41331;45.412;10.992;2023-02-21T03:43:25;101529.63;;;6.00;100.00
23433;BME280;41331;45.412;10.992;2023-02-21T03:45:58;101524.50;;;5.98;100.00
23433;BME280;41331;45.412;10.992;2023-02-21T03:48:27;101535.03;;;6.00;100.00
23433;BME280;41331;45.412;10.992;2023-02-21T03:51:20;101535.03;;;6.05;100.00
23433;BME280;41331;45.412;10.992;2023-02-21T04:48:02;101522.00;;;5.56;100.00
23433;BME280;41331;45.412;10.992;2023-02-21T04:50:30;101517.69;;;5.55;100.00
23433;BME280;41331;45.412;10.992;2023-02-21T04:53:01;101517.97;;;5.63;100.00
23433;BME280;41331;45.412;10.992;2023-02-21T04:55:29;101512.56;;;5.63;100.00
23433;BME280;41331;45.412;10.992;2023-02-21T04:57:56;101520.13;;;5.71;100.00
23433;BME280;41331;45.412;10.992;2023-02-21T05:00:23;101513.66;;;5.78;100.00
23433;BME280;41331;45.412;10.992;2023-02-21T05:02:51;101516.59;;;5.76;100.00
23433;BME280;41331;45.412;10.992;2023-02-21T05:05:18;101513.09;;;5.76;100.00
23433;BME280;41331;45.412;10.992;2023-02-21T05:07:46;101510.94;;;5.72;100.00
23433;BME280;41331;45.412;10.992;2023-02-21T05:10:15;101507.16;;;5.79;100.00
23433;BME280;41331;45.412;10.992;2023-02-21T05:12:43;101510.13;;;5.82;100.00
23433;BME280;41331;45.412;10.992;2023-02-21T05:15:12;101507.69;;;5.70;100.00
23433;BME280;41331;45.412;10.992;2023-02-21T05:17:39;101513.38;;;5.69;100.00
23433;BME280;41331;45.412;10.992;2023-02-21T05:20:07;101502.28;;;5.70;100.00
23433;BME280;41331;45.412;10.992;2023-02-21T05:22:41;101509.06;;;5.73;100.00
23433;BME280;41331;45.412;10.992;2023-02-21T05:25:20;101510.69;;;5.74;100.00
23433;BME280;41331;45.412;10.992;2023-02-21T05:27:49;101501.19;;;5.66;100.00
23433;BME280;41331;45.412;10.992;2023-02-21T05:30:18;101504.72;;;5.62;100.00
23433;BME280;41331;45.412;10.992;2023-02-21T05:32:46;101503.38;;;5.64;100.00
23433;BME280;41331;45.412;10.992;2023-02-21T05:35:16;101496.34;;;5.58;100.00
23433;BME280;41331;45.412;10.992;2023-02-21T05:37:44;101496.59;;;5.62;100.00
23433;BME280;41331;45.412;10.992;2023-02-21T05:40:12;101501.47;;;5.65;100.00
23433;BME280;41331;45.412;10.992;2023-02-21T05:42:41;101502.00;;;5.67;100.00
23433;BME280;41331;45.412;10.992;2023-02-21T05:45:09;101489.06;;;5.64;100.00
23433;BME280;41331;45.412;10.992;2023-02-21T05:47:37;101495.78;;;5.61;100.00
23433;BME280;41331;45.412;10.992;2023-02-21T05:50:04;101500.94;;;5.53;100.00
23433;BME280;41331;45.412;10.992;2023-02-21T05:52:32;101492.84;;;5.58;100.00
23433;BME280;41331;45.412;10.992;2023-02-21T05:54:59;101495.28;;;5.59;100.00
23433;BME280;41331;45.412;10.992;2023-02-21T05:57:26;101495.56;;;5.68;100.00
23433;BME280;41331;45.412;10.992;2023-02-21T05:59:53;101502.56;;;5.74;100.00
23433;BME280;41331;45.412;10.992;2023-02-21T06:02:21;101502.84;;;5.72;100.00
23433;BME280;41331;45.412;10.992;2023-02-21T06:04:48;101498.25;;;5.68;100.00
23433;BME280;41331;45.412;10.992;2023-02-21T06:07:16;101504.47;;;5.68;100.00
23433;BME280;41331;45.412;10.992;2023-02-21T06:09:44;101503.38;;;5.64;100.00
23433;BME280;41331;45.412;10.992;2023-02-21T06:12:12;101504.19;;;5.65;100.00
23433;BME280;41331;45.412;10.992;2023-02-21T06:14:39;101506.88;;;5.70;100.00
23433;BME280;41331;45.412;10.992;2023-02-21T06:17:06;101513.88;;;5.56;100.00
23433;BME280;41331;45.412;10.992;2023-02-21T06:19:34;101513.91;;;5.61;100.00
23433;BME280;41331;45.412;10.992;2023-02-21T06:22:01;101507.97;;;5.59;100.00
23433;BME280;41331;45.412;10.992;2023-02-21T06:24:28;101520.09;;;5.51;100.00
23433;BME280;41331;45.412;10.992;2023-02-21T06:26:56;101514.94;;;5.29;100.00
23433;BME280;41331;45.412;10.992;2023-02-21T06:29:23;101517.31;;;5.20;100.00
23433;BME280;41331;45.412;10.992;2023-02-21T06:31:55;101514.94;;;5.29;100.00
23433;BME280;41331;45.412;10.992;2023-02-21T06:34:23;101517.34;;;5.26;100.00
23433;BME280;41331;45.412;10.992;2023-02-21T06:36:52;101523.56;;;5.31;100.00
23433;BME280;41331;45.412;10.992;2023-02-21T06:39:20;101525.47;;;5.46;100.00
23433;BME280;41331;45.412;10.992;2023-02-21T06:41:48;101527.66;;;5.49;100.00
23433;BME280;41331;45.412;10.992;2023-02-21T06:44:18;101527.94;;;5.53;100.00
23433;BME280;41331;45.412;10.992;2023-02-21T06:46:47;101530.06;;;5.45;100.00
23433;BME280;41331;45.412;10.992;2023-02-21T06:49:16;101521.47;;;5.64;100.00
23433;BME280;41331;45.412;10.992;2023-02-21T06:51:43;101522.28;;;5.69;100.00
23433;BME280;41331;45.412;10.992;2023-02-21T06:54:11;101528.22;;;5.66;100.00
23433;BME280;41331;45.412;10.992;2023-02-21T06:56:38;101534.72;;;5.91;100.00
23433;BME280;41331;45.412;10.992;2023-02-21T06:59:06;101540.69;;;6.08;100.00
23433;BME280;41331;45.412;10.992;2023-02-21T07:01:33;101547.97;;;6.33;100.00
23433;BME280;41331;45.412;10.992;2023-02-21T07:04:00;101534.13;;;6.55;100.00
23433;BME280;41331;45.412;10.992;2023-02-21T07:06:28;101538.22;;;6.53;100.00
23433;BME280;41331;45.412;10.992;2023-02-21T07:08:56;101545.25;;;6.43;100.00
23433;BME280;41331;45.412;10.992;2023-02-21T07:11:23;101542.56;;;6.43;100.00
23433;BME280;41331;45.412;10.992;2023-02-21T07:13:53;101551.75;;;6.27;100.00
23433;BME280;41331;45.412;10.992;2023-02-21T07:16:22;101554.72;;;6.31;100.00
23433;BME280;41331;45.412;10.992;2023-02-21T07:18:50;101560.69;;;6.22;100.00
23433;BME280;41331;45.412;10.992;2023-02-21T07:21:19;101561.22;;;6.35;100.00
23433;BME280;41331;45.412;10.992;2023-02-21T07:23:47;101571.72;;;6.52;100.00
23433;BME280;41331;45.412;10.992;2023-02-21T07:26:17;101561.72;;;6.52;100.00
23433;BME280;41331;45.412;10.992;2023-02-21T07:28:47;101554.38;;;6.83;100.00
23433;BME280;41331;45.412;10.992;2023-02-21T07:31:14;101564.03;;;7.05;100.00
23433;BME280;41331;45.412;10.992;2023-02-21T07:33:45;101569.59;;;7.34;100.00
23433;BME280;41331;45.412;10.992;2023-02-21T07:36:13;101566.97;;;7.58;100.00
23433;BME280;41331;45.412;10.992;2023-02-21T07:38:40;101569.44;;;7.98;100.00
23433;BME280;41331;45.412;10.992;2023-02-21T07:41:07;101569.63;;;8.41;100.00
23433;BME280;41331;45.412;10.992;2023-02-21T07:43:35;101569.16;;;8.87;100.00
23433;BME280;41331;45.412;10.992;2023-02-21T07:46:02;101557.97;;;8.94;100.00
23433;BME280;41331;45.412;10.992;2023-02-21T07:48:33;101565.47;;;9.21;100.00
23433;BME280;41331;45.412;10.992;2023-02-21T07:51:00;101562.06;;;9.53;99.05
23433;BME280;41331;45.412;10.992;2023-02-21T07:53:27;101559.19;;;9.82;95.47
23433;BME280;41331;45.412;10.992;2023-02-21T07:55:55;101563.38;;;9.74;94.78
23433;BME280;41331;45.412;10.992;2023-02-21T07:58:22;101563.16;;;10.22;93.68
23433;BME280;41331;45.412;10.992;2023-02-21T08:00:49;101566.88;;;10.59;90.17
23433;BME280;41331;45.412;10.992;2023-02-21T08:03:17;101563.06;;;10.74;89.16
23433;BME280;41331;45.412;10.992;2023-02-21T08:05:47;101563.56;;;11.03;87.23
23433;BME280;41331;45.412;10.992;2023-02-21T08:08:15;101565.94;;;11.32;85.87
23433;BME280;41331;45.412;10.992;2023-02-21T08:10:43;101563.03;;;12.01;82.56
23433;BME280;41331;45.412;10.992;2023-02-21T08:13:10;101561.53;;;12.40;80.51
23433;BME280;41331;45.412;10.992;2023-02-21T08:15:37;101558.22;;;13.00;76.08
23433;BME280;41331;45.412;10.992;2023-02-21T08:18:14;101557.19;;;13.27;75.52
23433;BME280;41331;45.412;10.992;2023-02-21T08:20:45;101557.03;;;13.24;74.02
23433;BME280;41331;45.412;10.992;2023-02-21T08:23:12;101562.53;;;13.41;73.92
23433;BME280;41331;45.412;10.992;2023-02-21T08:25:39;101556.56;;;13.39;74.11
23433;BME280;41331;45.412;10.992;2023-02-21T08:28:07;101560.91;;;14.00;70.29
23433;BME280;41331;45.412;10.992;2023-02-21T08:30:34;101557.47;;;14.38;69.59
23433;BME280;41331;45.412;10.992;2023-02-21T08:33:01;101563.53;;;14.61;68.52
23433;BME280;41331;45.412;10.992;2023-02-21T08:35:32;101561.00;;;14.86;66.58
23433;BME280;41331;45.412;10.992;2023-02-21T08:37:59;101555.53;;;15.15;65.24
23433;BME280;41331;45.412;10.992;2023-02-21T08:40:30;101553.69;;;15.28;65.54
23433;BME280;41331;45.412;10.992;2023-02-21T08:42:59;101559.44;;;15.06;65.71
23433;BME280;41331;45.412;10.992;2023-02-21T08:45:27;101562.16;;;15.65;64.81
23433;BME280;41331;45.412;10.992;2023-02-21T08:47:55;101558.50;;;15.52;63.85
23433;BME280;41331;45.412;10.992;2023-02-21T08:50:25;101561.81;;;15.87;63.35
23433;BME280;41331;45.412;10.992;2023-02-21T08:52:53;101570.34;;;15.44;65.51
23433;BME280;41331;45.412;10.992;2023-02-21T08:55:21;101563.09;;;15.69;62.86
23433;BME280;41331;45.412;10.992;2023-02-21T08:57:50;101567.50;;;15.82;62.43
23433;BME280;41331;45.412;10.992;2023-02-21T09:00:19;101570.66;;;15.21;63.41
23433;BME280;41331;45.412;10.992;2023-02-21T09:02:50;101569.41;;;15.40;63.30
23433;BME280;41331;45.412;10.992;2023-02-21T09:05:23;101566.03;;;15.64;63.08
23433;BME280;41331;45.412;10.992;2023-02-21T09:07:54;101570.09;;;15.58;63.59
23433;BME280;41331;45.412;10.992;2023-02-21T09:10:25;101567.44;;;15.19;63.77
23433;BME280;41331;45.412;10.992;2023-02-21T09:12:53;101573.59;;;15.16;64.61
23433;BME280;41331;45.412;10.992;2023-02-21T09:15:20;101564.19;;;15.47;63.39
23433;BME280;41331;45.412;10.992;2023-02-21T09:17:48;101566.34;;;15.41;63.15
23433;BME280;41331;45.412;10.992;2023-02-21T09:20:22;101562.84;;;15.32;63.12
23433;BME280;41331;45.412;10.992;2023-02-21T09:22:50;101563.31;;;15.55;62.69
23433;BME280;41331;45.412;10.992;2023-02-21T09:25:21;101562.50;;;15.63;62.42
23433;BME280;41331;45.412;10.992;2023-02-21T09:27:53;101556.28;;;15.45;62.17
23433;BME280;41331;45.412;10.992;2023-02-21T09:30:23;101565.03;;;15.68;61.25
23433;BME280;41331;45.412;10.992;2023-02-21T09:32:52;101560.06;;;15.83;62.04
23433;BME280;41331;45.412;10.992;2023-02-21T09:35:21;101561.88;;;15.78;61.02
23433;BME280;41331;45.412;10.992;2023-02-21T09:37:49;101558.59;;;16.18;60.65
23433;BME280;41331;45.412;10.992;2023-02-21T09:42:53;101559.53;;;16.35;60.98
23433;BME280;41331;45.412;10.992;2023-02-21T09:45:24;101557.53;;;16.11;60.36
23433;BME280;41331;45.412;10.992;2023-02-21T09:47:54;101557.44;;;16.19;61.05
23433;BME280;41331;45.412;10.992;2023-02-21T09:50:26;101557.31;;;16.16;61.20
23433;BME280;41331;45.412;10.992;2023-02-21T09:52:57;101559.06;;;15.87;62.12
23433;BME280;41331;45.412;10.992;2023-02-21T09:55:33;101547.22;;;16.65;61.71
23433;BME280;41331;45.412;10.992;2023-02-21T09:58:02;101556.16;;;16.62;61.53
23433;BME280;41331;45.412;10.992;2023-02-21T10:00:35;101557.13;;;15.88;62.11
23433;BME280;41331;45.412;10.992;2023-02-21T10:03:32;101553.78;;;15.82;63.22
23433;BME280;41331;45.412;10.992;2023-02-21T10:06:33;101547.94;;;15.42;65.72
23433;BME280;41331;45.412;10.992;2023-02-21T10:09:21;101550.84;;;15.16;65.67
23433;BME280;41331;45.412;10.992;2023-02-21T10:17:31;101548.78;;;15.34;67.90
23433;BME280;41331;45.412;10.992;2023-02-21T10:20:13;101553.63;;;15.37;68.06
23433;BME280;41331;45.412;10.992;2023-02-21T10:22:43;101554.16;;;15.93;65.87
23433;BME280;41331;45.412;10.992;2023-02-21T10:27:46;101541.63;;;16.04;65.54
23433;BME280;41331;45.412;10.992;2023-02-21T10:30:25;101548.09;;;15.87;66.11
23433;BME280;41331;45.412;10.992;2023-02-21T10:32:55;101546.47;;;15.44;68.89
23433;BME280;41331;45.412;10.992;2023-02-21T10:35:24;101543.84;;;15.48;67.84
23433;BME280;41331;45.412;10.992;2023-02-21T10:37:55;101535.09;;;15.54;66.66
23433;BME280;41331;45.412;10.992;2023-02-21T10:40:43;101539.66;;;15.00;70.50
23433;BME280;41331;45.412;10.992;2023-02-21T10:43:33;101536.41;;;15.07;70.71
23433;BME280;41331;45.412;10.992;2023-02-21T10:46:26;101539.09;;;14.39;74.01
23433;BME280;41331;45.412;10.992;2023-02-21T10:51:44;101536.34;;;14.56;73.72
23433;BME280;41331;45.412;10.992;2023-02-21T10:56:48;101534.31;;;14.18;76.44
23433;BME280;41331;45.412;10.992;2023-02-21T10:59:24;101529.91;;;14.35;74.99
23433;BME280;41331;45.412;10.992;2023-02-21T11:01:53;101537.38;;;14.08;76.48
23433;BME280;41331;45.412;10.992;2023-02-21T11:06:56;101518.91;;;13.88;79.76
23433;BME280;41331;45.412;10.992;2023-02-21T11:17:24;101502.84;;;14.42;75.13
23433;BME280;41331;45.412;10.992;2023-02-21T11:19:57;101493.66;;;14.38;77.02
23433;BME280;41331;45.412;10.992;2023-02-21T11:22:36;101486.72;;;14.79;75.28
23433;BME280;41331;45.412;10.992;2023-02-21T11:27:57;101485.25;;;14.52;77.41
23433;BME280;41331;45.412;10.992;2023-02-21T11:30:25;101483.50;;;15.27;73.56
23433;BME280;41331;45.412;10.992;2023-02-21T11:32:57;101481.19;;;14.58;75.35
23433;BME280;41331;45.412;10.992;2023-02-21T11:35:36;101479.03;;;14.72;76.34
23433;BME280;41331;45.412;10.992;2023-02-21T11:38:08;101473.03;;;14.79;77.72
23433;BME280;41331;45.412;10.992;2023-02-21T11:40:54;101475.41;;;14.50;79.20
23433;BME280;41331;45.412;10.992;2023-02-21T11:43:27;101469.13;;;14.50;78.59
23433;BME280;41331;45.412;10.992;2023-02-21T11:46:08;101466.78;;;14.69;77.56
23433;BME280;41331;45.412;10.992;2023-02-21T11:51:25;101455.81;;;14.99;76.96
23433;BME280;41331;45.412;10.992;2023-02-21T11:53:55;101455.53;;;15.34;76.91
23433;BME280;41331;45.412;10.992;2023-02-21T11:56:35;101450.53;;;14.64;78.55
23433;BME280;41331;45.412;10.992;2023-02-21T12:02:21;101442.09;;;14.48;81.95
23433;BME280;41331;45.412;10.992;2023-02-21T12:05:09;101440.69;;;14.72;78.85
23433;BME280;41331;45.412;10.992;2023-02-21T12:10:32;101430.69;;;14.97;79.24
23433;BME280;41331;45.412;10.992;2023-02-21T12:15:57;101420.69;;;14.71;78.41
23433;BME280;41331;45.412;10.992;2023-02-21T12:18:38;101424.06;;;14.98;78.57
23433;BME280;41331;45.412;10.992;2023-02-21T12:27:01;101408.84;;;15.75;74.14
23433;BME280;41331;45.412;10.992;2023-02-21T12:29:50;101400.75;;;15.91;72.16
23433;BME280;41331;45.412;10.992;2023-02-21T12:35:24;101401.78;;;15.99;73.17
23433;BME280;41331;45.412;10.992;2023-02-21T12:37:57;101396.19;;;15.95;72.32
23433;BME280;41331;45.412;10.992;2023-02-21T12:43:28;101390.47;;;15.22;76.19
23433;BME280;41331;45.412;10.992;2023-02-21T12:49:02;101382.22;;;15.55;76.29
23433;BME280;41331;45.412;10.992;2023-02-21T12:51:52;101378.69;;;15.54;74.48
23433;BME280;41331;45.412;10.992;2023-02-21T12:54:37;101374.56;;;15.82;74.65
23433;BME280;41331;45.412;10.992;2023-02-21T12:57:11;101378.09;;;15.82;73.49
23433;BME280;41331;45.412;10.992;2023-02-21T13:06:09;101372.66;;;16.07;73.28
23433;BME280;41331;45.412;10.992;2023-02-21T13:11:24;101364.94;;;16.00;71.89
23433;BME280;41331;45.412;10.992;2023-02-21T13:13:54;101354.72;;;15.64;72.84
23433;BME280;41331;45.412;10.992;2023-02-21T13:16:22;101358.22;;;15.52;73.13
23433;BME280;41331;45.412;10.992;2023-02-21T13:19:00;101353.72;;;15.68;75.30
23433;BME280;41331;45.412;10.992;2023-02-21T13:21:48;101341.34;;;15.62;73.20
23433;BME280;41331;45.412;10.992;2023-02-21T13:24:31;101342.66;;;15.77;72.60
23433;BME280;41331;45.412;10.992;2023-02-21T13:32:59;101340.91;;;15.72;72.28
23433;BME280;41331;45.412;10.992;2023-02-21T13:35:38;101333.09;;;15.62;72.71
23433;BME280;41331;45.412;10.992;2023-02-21T13:38:07;101332.00;;;15.75;72.73
23433;BME280;41331;45.412;10.992;2023-02-21T13:41:04;101321.22;;;16.44;71.41
23433;BME280;41331;45.412;10.992;2023-02-21T13:43:45;101310.44;;;16.51;69.75
23433;BME280;41331;45.412;10.992;2023-02-21T13:57:48;101289.34;;;15.78;71.11
23433;BME280;41331;45.412;10.992;2023-02-21T14:08:29;101283.31;;;15.39;74.29
23433;BME280;41331;45.412;10.992;2023-02-21T14:18:44;101273.50;;;14.93;75.09
23433;BME280;41331;45.412;10.992;2023-02-21T14:21:23;101279.22;;;14.67;76.88
23433;BME280;41331;45.412;10.992;2023-02-21T14:23:57;101265.34;;;14.51;77.19
23433;BME280;41331;45.412;10.992;2023-02-21T14:26:34;101277.53;;;14.54;77.56
23433;BME280;41331;45.412;10.992;2023-02-21T14:31:53;101271.88;;;14.29;78.55
23433;BME280;41331;45.412;10.992;2023-02-21T14:34:37;101263.84;;;14.03;79.52
23433;BME280;41331;45.412;10.992;2023-02-21T14:43:14;101272.59;;;13.58;82.58
23433;BME280;41331;45.412;10.992;2023-02-21T14:57:17;101273.13;;;13.52;82.95
23433;BME280;41331;45.412;10.992;2023-02-21T15:12:55;101258.84;;;13.46;82.94
23433;BME280;41331;45.412;10.992;2023-02-21T15:15:25;101260.91;;;13.49;83.28
23433;BME280;41331;45.412;10.992;2023-02-21T15:17:55;101256.75;;;13.34;83.61
23433;BME280;41331;45.412;10.992;2023-02-21T15:20:24;101252.88;;;13.44;83.39
23433;BME280;41331;45.412;10.992;2023-02-21T15:23:09;101260.13;;;13.40;84.92
23433;BME280;41331;45.412;10.992;2023-02-21T15:25:37;101258.59;;;13.60;83.29
23433;BME280;41331;45.412;10.992;2023-02-21T15:28:13;101264.16;;;13.42;83.67
23433;BME280;41331;45.412;10.992;2023-02-21T15:31:01;101256.28;;;13.41;84.17
23433;BME280;41331;45.412;10.992;2023-02-21T15:33:32;101249.38;;;13.35;83.81
23433;BME280;41331;45.412;10.992;2023-02-21T15:38:46;101251.44;;;13.46;83.85
23433;BME280;41331;45.412;10.992;2023-02-21T15:41:31;101258.38;;;13.35;84.16
23433;BME280;41331;45.412;10.992;2023-02-21T15:44:02;101256.13;;;13.37;84.27
23433;BME280;41331;45.412;10.992;2023-02-21T15:46:45;101263.88;;;13.18;85.55
23433;BME280;41331;45.412;10.992;2023-02-21T15:49:21;101259.09;;;12.98;86.65
23433;BME280;41331;45.412;10.992;2023-02-21T15:51:49;101260.22;;;12.79;87.69
23433;BME280;41331;45.412;10.992;2023-02-21T15:54:25;101257.03;;;12.68;88.24
23433;BME280;41331;45.412;10.992;2023-02-21T15:57:21;101263.16;;;12.57;89.66
23433;BME280;41331;45.412;10.992;2023-02-21T16:02:45;101262.19;;;12.61;88.96
23433;BME280;41331;45.412;10.992;2023-02-21T16:05:29;101274.41;;;12.55;89.06
23433;BME280;41331;45.412;10.992;2023-02-21T16:08:01;101276.63;;;12.53;89.37
23433;BME280;41331;45.412;10.992;2023-02-21T16:10:31;101266.84;;;12.52;89.00
23433;BME280;41331;45.412;10.992;2023-02-21T16:13:01;101265.88;;;12.48;89.49
23433;BME280;41331;45.412;10.992;2023-02-21T16:15:33;101268.59;;;12.57;88.95
23433;BME280;41331;45.412;10.992;2023-02-21T16:18:05;101272.28;;;12.43;89.82
23433;BME280;41331;45.412;10.992;2023-02-21T16:20:38;101268.25;;;12.32;90.58
23433;BME280;41331;45.412;10.992;2023-02-21T16:28:43;101268.91;;;12.21;91.46
23433;BME280;41331;45.412;10.992;2023-02-21T16:31:16;101276.28;;;12.20;91.28
23433;BME280;41331;45.412;10.992;2023-02-21T16:33:50;101277.53;;;12.14;91.58
23433;BME280;41331;45.412;10.992;2023-02-21T16:36:29;101274.03;;;12.22;90.78
23433;BME280;41331;45.412;10.992;2023-02-21T16:38:57;101274.03;;;12.22;91.09
23433;BME280;41331;45.412;10.992;2023-02-21T16:41:25;101279.97;;;12.15;91.54
23433;BME280;41331;45.412;10.992;2023-02-21T16:43:55;101284.78;;;12.18;91.70
23433;BME280;41331;45.412;10.992;2023-02-21T16:46:25;101284.94;;;12.13;91.76
23433;BME280;41331;45.412;10.992;2023-02-21T16:48:56;101284.78;;;12.18;91.35
23433;BME280;41331;45.412;10.992;2023-02-21T16:51:25;101283.31;;;12.12;91.75
23433;BME280;41331;45.412;10.992;2023-02-21T16:53:59;101287.34;;;12.06;92.43
23433;BME280;41331;45.412;10.992;2023-02-21T16:56:27;101279.91;;;11.98;93.00
23433;BME280;41331;45.412;10.992;2023-02-21T16:58:55;101288.28;;;12.02;92.87
23433;BME280;41331;45.412;10.992;2023-02-21T17:01:26;101284.09;;;12.04;92.62
23433;BME280;41331;45.412;10.992;2023-02-21T17:03:55;101295.16;;;11.99;93.46
23433;BME280;41331;45.412;10.992;2023-02-21T17:06:23;101294.22;;;11.95;93.80
23433;BME280;41331;45.412;10.992;2023-02-21T17:08:51;101289.22;;;11.97;93.72
23433;BME280;41331;45.412;10.992;2023-02-21T17:11:19;101291.31;;;11.91;94.35
23433;BME280;41331;45.412;10.992;2023-02-21T17:13:46;101288.06;;;11.89;93.72
23433;BME280;41331;45.412;10.992;2023-02-21T17:16:14;101295.97;;;12.00;93.60